createdAt,value
2019-01-21T00:00:31.984Z,96033.80
2019-01-21T00:05:29.003Z,96038.20
2019-01-21T00:10:25.935Z,96046.22
2019-01-21T00:15:23.343Z,96042.28
2019-01-21T00:20:20.394Z,96048.61
2019-01-21T00:25:17.310Z,96057.61
2019-01-21T00:30:14.246Z,96065.86
2019-01-21T00:35:11.146Z,96063.08
2019-01-21T00:40:16.261Z,96071.46
2019-01-21T00:45:13.662Z,96072.31
2019-01-21T00:50:12.538Z,96087.37
2019-01-21T00:55:12.029Z,96079.97
2019-01-21T01:00:19.667Z,96083.53
2019-01-21T01:05:17.796Z,96093.56
2019-01-21T01:10:15.026Z,96085.34
2019-01-21T01:15:13.745Z,96096.33
2019-01-21T01:20:14.698Z,96092.75
2019-01-21T01:25:11.698Z,96103.38
2019-01-21T01:30:12.573Z,96103.96
2019-01-21T01:35:11.191Z,96114.95
2019-01-21T01:40:12.273Z,96116.85
2019-01-21T01:45:14.447Z,96111.63
2019-01-21T01:50:11.652Z,96111.19
2019-01-21T01:55:10.001Z,96113.70
2019-01-21T02:00:14.414Z,96111.07
2019-01-21T02:05:11.816Z,96106.87
2019-01-21T02:10:11.516Z,96108.07
2019-01-21T02:15:11.923Z,96117.41
2019-01-21T02:20:16.097Z,96116.06
2019-01-21T02:25:13.154Z,96121.32
2019-01-21T02:30:24.045Z,96125.30
2019-01-21T02:35:26.395Z,96130.55
2019-01-21T02:40:40.951Z,96136.31
2019-01-21T02:46:06.346Z,96128.98
2019-01-21T02:51:44.088Z,96130.45
2019-01-21T02:56:52.345Z,96134.77
2019-01-21T03:02:17.578Z,96140.53
2019-01-21T03:07:44.353Z,96131.86
2019-01-21T03:12:50.586Z,96140.25
2019-01-21T03:18:15.376Z,96138.59
2019-01-21T03:23:42.009Z,96145.51
2019-01-21T03:28:59.125Z,96142.48
2019-01-21T03:34:13.515Z,96140.69
2019-01-21T03:39:52.572Z,96140.16
2019-01-21T03:45:33.281Z,96148.52
2019-01-21T03:51:10.927Z,96153.14
2019-01-21T03:56:10.155Z,96156.34
2019-01-21T04:01:29.391Z,96158.63
2019-01-21T04:06:40.787Z,96159.86
2019-01-21T04:11:45.818Z,96165.73
2019-01-21T04:17:39.441Z,96167.77
2019-01-21T04:22:46.795Z,96178.08
2019-01-21T04:28:01.192Z,96178.41
2019-01-21T04:33:35.833Z,96182.85
2019-01-21T04:39:01.109Z,96185.09
2019-01-21T04:44:14.998Z,96182.09
2019-01-21T04:49:22.859Z,96191.83
2019-01-21T04:54:55.964Z,96196.09
2019-01-21T05:00:19.626Z,96196.18
2019-01-21T05:05:51.818Z,96198.77
2019-01-21T05:11:15.724Z,96202.75
2019-01-21T05:16:20.983Z,96201.30
2019-01-21T05:21:47.905Z,96204.55
2019-01-21T05:27:19.508Z,96208.75
2019-01-21T05:32:27.783Z,96212.83
2019-01-21T05:37:45.062Z,96222.09
2019-01-21T05:43:06.061Z,96230.03
2019-01-21T05:48:49.046Z,96233.15
2019-01-21T05:54:24.261Z,96243.31
2019-01-21T05:59:38.781Z,96248.80
2019-01-21T06:05:04.982Z,96252.17
2019-01-21T06:10:16.243Z,96256.16
2019-01-21T06:15:37.288Z,96253.28
2019-01-21T06:21:00.555Z,96262.81
2019-01-21T06:26:12.616Z,96259.49
2019-01-21T06:31:29.559Z,96257.00
2019-01-21T06:36:31.967Z,96266.61
2019-01-21T06:42:17.599Z,96263.17
2019-01-21T06:48:04.373Z,96266.58
2019-01-21T06:53:20.889Z,96277.27
2019-01-21T06:58:52.612Z,96279.09
2019-01-21T07:04:28.726Z,96281.50
2019-01-21T07:09:31.101Z,96283.36
2019-01-21T07:14:51.520Z,96294.52
2019-01-21T07:20:14.975Z,96297.30
2019-01-21T07:25:28.860Z,96300.36
2019-01-21T07:30:43.327Z,96306.05
2019-01-21T07:36:28.533Z,96307.78
2019-01-21T07:42:06.169Z,96314.81
2019-01-21T07:47:53.175Z,96323.08
2019-01-21T07:53:28.219Z,96324.88
2019-01-21T07:58:51.674Z,96324.69
2019-01-21T08:04:36.863Z,96332.42
2019-01-21T08:10:06.359Z,96336.86
2019-01-21T08:15:26.423Z,96329.00
2019-01-21T08:20:43.523Z,96327.25
2019-01-21T08:26:07.006Z,96336.33
2019-01-21T08:31:16.106Z,96337.11
2019-01-21T08:36:27.491Z,96348.04
2019-01-21T08:41:53.675Z,96347.74
2019-01-21T08:47:14.381Z,96352.83
2019-01-21T08:52:37.152Z,96356.63
2019-01-21T08:58:08.469Z,96352.93
2019-01-21T09:03:27.447Z,96355.95
2019-01-21T09:08:54.180Z,96361.17
2019-01-21T09:14:05.371Z,96365.20
2019-01-21T09:19:19.579Z,96363.68
2019-01-21T09:24:37.837Z,96366.75
2019-01-21T09:29:49.238Z,96365.13
2019-01-21T09:35:20.733Z,96364.38
2019-01-21T09:40:28.977Z,96361.58
2019-01-21T09:45:40.238Z,96366.45
2019-01-21T09:50:37.643Z,96359.36
2019-01-21T09:55:37.596Z,96359.20
2019-01-21T10:00:34.516Z,96353.02
2019-01-21T10:05:34.145Z,96355.19
2019-01-21T10:11:03.591Z,96351.94
2019-01-21T10:16:32.208Z,96355.41
2019-01-21T10:21:43.229Z,96348.47
2019-01-21T10:27:23.929Z,96350.03
2019-01-21T10:33:20.743Z,96349.64
2019-01-21T10:38:47.538Z,96348.22
2019-01-21T10:43:58.666Z,96349.89
2019-01-21T10:49:03.794Z,96347.84
2019-01-21T10:54:14.638Z,96348.72
2019-01-21T10:59:23.083Z,96346.06
2019-01-21T11:04:53.195Z,96341.86
2019-01-21T11:10:01.585Z,96339.85
2019-01-21T11:15:22.224Z,96331.45
2019-01-21T11:20:58.205Z,96331.78
2019-01-21T11:26:30.922Z,96327.37
2019-01-21T11:32:02.946Z,96326.17
2019-01-21T11:37:40.495Z,96324.27
2019-01-21T11:43:01.103Z,96328.92
2019-01-21T11:48:12.443Z,96324.48
2019-01-21T11:53:33.126Z,96320.14
2019-01-21T11:58:49.967Z,96315.52
2019-01-21T12:04:06.854Z,96319.70
2019-01-21T12:09:24.637Z,96326.87
2019-01-21T12:14:48.140Z,96315.28
2019-01-21T12:20:08.012Z,96310.47
2019-01-21T12:25:28.129Z,96305.80
2019-01-21T12:30:51.681Z,96294.26
2019-01-21T12:36:05.712Z,96297.64
2019-01-21T12:41:10.862Z,96294.51
2019-01-21T12:46:17.287Z,96293.03
2019-01-21T12:51:31.835Z,96292.94
2019-01-21T12:56:52.127Z,96284.34
2019-01-21T13:02:00.528Z,96282.66
2019-01-21T13:07:24.300Z,96287.93
2019-01-21T13:12:46.332Z,96290.07
2019-01-21T13:17:51.208Z,96292.13
2019-01-21T13:23:05.911Z,96269.98
2019-01-21T13:28:23.762Z,96281.36
2019-01-21T13:33:56.041Z,96280.14
2019-01-21T13:39:10.474Z,96278.23
2019-01-21T13:44:18.780Z,96276.52
2019-01-21T13:49:43.718Z,96274.75
2019-01-21T13:54:57.707Z,96265.19
2019-01-21T14:00:20.850Z,96274.05
2019-01-21T14:05:47.631Z,96264.34
2019-01-21T14:11:01.986Z,96265.29
2019-01-21T14:16:39.540Z,96266.98
2019-01-21T14:22:09.185Z,96261.92
2019-01-21T14:27:37.417Z,96254.02
2019-01-21T14:33:10.150Z,96259.66
2019-01-21T14:38:34.625Z,96261.36
2019-01-21T14:43:59.531Z,96251.77
2019-01-21T14:49:16.807Z,96256.59
2019-01-21T14:54:22.419Z,96262.22
2019-01-21T14:59:59.719Z,96258.90
2019-01-21T15:05:21.575Z,96252.14
2019-01-21T15:10:29.959Z,96252.32
2019-01-21T15:15:59.849Z,96247.25
2019-01-21T15:21:08.201Z,96258.19
2019-01-21T15:26:19.025Z,96250.66
2019-01-21T15:31:48.919Z,96261.05
2019-01-21T15:37:18.677Z,96263.73
2019-01-21T15:42:29.576Z,96266.30
2019-01-21T15:47:44.122Z,96274.17
2019-01-21T15:53:01.424Z,96269.59
2019-01-21T15:58:07.576Z,96262.05
2019-01-21T16:03:26.676Z,96259.89
2019-01-21T16:08:29.022Z,96270.46
2019-01-21T16:13:37.130Z,96269.05
2019-01-21T16:18:42.425Z,96266.59
2019-01-21T16:24:20.178Z,96264.95
2019-01-21T16:29:36.552Z,96263.70
2019-01-21T16:34:47.930Z,96259.37
2019-01-21T16:40:20.233Z,96263.64
2019-01-21T16:45:17.630Z,96262.41
2019-01-21T16:50:14.844Z,96262.66
2019-01-21T16:55:11.883Z,96259.97
2019-01-21T17:00:13.146Z,96260.56
2019-01-21T17:05:11.646Z,96257.30
2019-01-21T17:10:10.713Z,96264.48
2019-01-21T17:15:11.593Z,96260.39
2019-01-21T17:20:16.374Z,96278.14
2019-01-21T17:25:13.780Z,96275.42
2019-01-21T17:30:15.421Z,96276.08
2019-01-21T17:35:13.843Z,96288.27
2019-01-21T17:40:15.811Z,96289.48
2019-01-21T17:45:17.756Z,96288.56
2019-01-21T17:50:17.005Z,96282.98
2019-01-21T17:55:14.684Z,96282.77
2019-01-21T18:00:18.464Z,96285.95
2019-01-21T18:05:16.466Z,96286.75
2019-01-21T18:10:16.821Z,96274.50
2019-01-21T18:15:15.038Z,96271.23
2019-01-21T18:20:18.819Z,96264.13
2019-01-21T18:25:16.255Z,96260.74
2019-01-21T18:30:17.834Z,96254.25
2019-01-21T18:35:15.004Z,96251.42
2019-01-21T18:40:15.595Z,96242.13
2019-01-21T18:45:18.199Z,96242.80
2019-01-21T18:50:15.371Z,96240.55
2019-01-21T18:55:12.329Z,96239.23
2019-01-21T19:00:19.877Z,96233.17
2019-01-21T19:05:32.271Z,96242.44
2019-01-21T19:10:29.210Z,96242.05
2019-01-21T19:15:29.325Z,96249.52
2019-01-21T19:20:26.246Z,96246.45
2019-01-21T19:25:39.460Z,96249.72
2019-01-21T19:30:36.357Z,96245.13
2019-01-21T19:35:34.126Z,96239.44
2019-01-21T19:40:32.211Z,96236.64
2019-01-21T19:45:29.351Z,96243.24
2019-01-21T19:50:26.467Z,96238.02
2019-01-21T19:55:38.923Z,96233.90
2019-01-21T20:00:36.696Z,96238.11
2019-01-21T20:05:33.647Z,96239.28
2019-01-21T20:10:30.559Z,96228.38
2019-01-21T20:15:27.518Z,96234.30
2019-01-21T20:20:35.087Z,96227.75
2019-01-21T20:25:32.010Z,96232.77
2019-01-21T20:30:29.001Z,96231.38
2019-01-21T20:35:26.029Z,96227.61
2019-01-21T20:40:27.946Z,96219.23
2019-01-21T20:45:24.859Z,96216.91
2019-01-21T20:50:25.464Z,96220.92
2019-01-21T20:55:22.809Z,96222.53
2019-01-21T21:00:25.567Z,96214.09
2019-01-21T21:05:23.084Z,96210.04
2019-01-21T21:10:20.101Z,96224.36
2019-01-21T21:15:21.451Z,96219.56
2019-01-21T21:20:18.141Z,96217.06
2019-01-21T21:25:18.481Z,96213.81
2019-01-21T21:30:20.094Z,96207.67
2019-01-21T21:35:16.719Z,96202.65
2019-01-21T21:40:16.599Z,96201.76
2019-01-21T21:45:16.172Z,96199.14
2019-01-21T21:50:16.776Z,96197.78
2019-01-21T21:55:13.634Z,96200.46
2019-01-21T22:00:23.107Z,96193.22
2019-01-21T22:05:20.311Z,96192.16
2019-01-21T22:10:24.227Z,96199.55
2019-01-21T22:15:22.983Z,96187.41
2019-01-21T22:20:26.337Z,96188.02
2019-01-21T22:25:23.211Z,96182.52
2019-01-21T22:30:23.558Z,96183.20
2019-01-21T22:35:20.564Z,96186.62
2019-01-21T22:40:20.228Z,96181.06
2019-01-21T22:45:18.636Z,96174.58
2019-01-21T22:50:16.901Z,96168.15
2019-01-21T22:55:15.130Z,96169.78
2019-01-21T23:00:34.680Z,96167.12
2019-01-21T23:05:31.601Z,96161.20
2019-01-21T23:10:29.547Z,96150.34
2019-01-21T23:15:26.437Z,96142.09
2019-01-21T23:20:23.611Z,96143.29
2019-01-21T23:25:20.515Z,96136.08
2019-01-21T23:30:20.516Z,96137.73
2019-01-21T23:35:18.203Z,96142.07
2019-01-21T23:40:15.470Z,96135.77
2019-01-21T23:45:12.381Z,96134.64
2019-01-21T23:50:15.603Z,96126.66
2019-01-21T23:55:13.011Z,96122.23
